createdAt,value
2023-03-06T00:01:11.209Z,20.25
2023-03-06T00:03:39.138Z,20.48
2023-03-06T00:06:07.613Z,21.81
2023-03-06T00:08:35.476Z,23.35
2023-03-06T00:11:03.305Z,23.80
2023-03-06T00:13:32.142Z,23.90
2023-03-06T00:16:02.085Z,21.93
2023-03-06T00:18:30.112Z,20.84
2023-03-06T00:20:57.995Z,20.37
2023-03-06T00:23:25.911Z,19.61
2023-03-06T00:25:53.853Z,18.86
2023-03-06T00:28:21.753Z,18.90
2023-03-06T00:30:49.641Z,19.15
2023-03-06T00:33:18.937Z,18.43
2023-03-06T00:35:46.795Z,18.02
2023-03-06T00:38:15.061Z,17.71
2023-03-06T00:40:42.932Z,17.27
2023-03-06T00:43:11.340Z,17.09
2023-03-06T00:45:39.283Z,17.21
2023-03-06T00:48:07.225Z,17.18
2023-03-06T00:50:36.630Z,16.95
2023-03-06T00:53:04.657Z,16.32
2023-03-06T00:55:33.523Z,15.91
2023-03-06T00:58:01.545Z,15.49
2023-03-06T01:00:29.503Z,15.52
2023-03-06T01:02:57.505Z,15.23
2023-03-06T01:05:25.446Z,15.84
2023-03-06T01:07:54.838Z,16.01
2023-03-06T01:10:23.027Z,15.26
2023-03-06T01:12:50.891Z,14.95
2023-03-06T01:15:18.803Z,15.77
2023-03-06T01:17:46.674Z,15.62
2023-03-06T01:20:17.537Z,15.57
2023-03-06T01:22:45.614Z,15.32
2023-03-06T01:25:14.884Z,14.81
2023-03-06T01:27:42.939Z,14.78
2023-03-06T01:30:11.967Z,14.13
2023-03-06T01:32:40.165Z,13.56
2023-03-06T01:35:09.058Z,13.84
2023-03-06T01:37:37.410Z,14.35
2023-03-06T01:40:06.845Z,13.54
2023-03-06T01:42:36.120Z,14.10
2023-03-06T01:45:07.864Z,14.77
2023-03-06T01:47:35.813Z,14.81
2023-03-06T01:50:04.988Z,14.75
2023-03-06T01:52:40.773Z,14.67
2023-03-06T01:55:12.135Z,15.42
2023-03-06T01:57:46.456Z,15.59
2023-03-06T02:00:16.943Z,15.82
2023-03-06T02:02:50.863Z,15.74
2023-03-06T02:05:18.723Z,15.56
2023-03-06T02:07:48.383Z,15.93
2023-03-06T02:10:19.022Z,15.64
2023-03-06T02:12:52.206Z,15.83
2023-03-06T02:15:24.313Z,15.97
2023-03-06T02:17:53.142Z,16.23
2023-03-06T02:20:30.273Z,16.82
2023-03-06T02:23:07.514Z,16.50
2023-03-06T02:25:39.979Z,16.77
2023-03-06T02:28:11.684Z,16.64
2023-03-06T02:30:40.746Z,17.02
2023-03-06T02:33:09.420Z,17.27
2023-03-06T02:35:40.404Z,17.45
2023-03-06T02:38:12.570Z,16.27
2023-03-06T02:40:44.898Z,16.95
2023-03-06T02:43:16.411Z,17.33
2023-03-06T02:45:48.368Z,17.77
2023-03-06T02:48:18.416Z,17.77
2023-03-06T02:50:46.789Z,17.22
2023-03-06T02:53:16.705Z,17.16
2023-03-06T02:55:46.440Z,18.04
2023-03-06T02:58:14.671Z,17.63
2023-03-06T03:00:42.533Z,18.56
2023-03-06T03:03:10.420Z,18.30
2023-03-06T03:05:38.277Z,17.77
2023-03-06T03:08:06.691Z,18.00
2023-03-06T03:10:34.736Z,18.16
2023-03-06T03:13:03.970Z,18.09
2023-03-06T03:15:31.890Z,18.58
2023-03-06T03:17:59.737Z,18.49
2023-03-06T03:20:27.738Z,17.87
2023-03-06T03:22:57.269Z,18.52
2023-03-06T03:25:27.104Z,17.98
2023-03-06T03:27:54.970Z,19.25
2023-03-06T03:30:24.529Z,19.10
2023-03-06T03:32:52.387Z,19.62
2023-03-06T03:35:20.382Z,19.64
2023-03-06T03:37:48.253Z,19.88
2023-03-06T03:40:16.150Z,20.14
2023-03-06T03:42:43.994Z,20.05
2023-03-06T03:45:12.579Z,20.63
2023-03-06T03:47:42.302Z,20.29
2023-03-06T03:50:11.657Z,20.84
2023-03-06T03:52:39.520Z,20.41
2023-03-06T03:55:08.631Z,21.10
2023-03-06T03:57:36.454Z,20.97
2023-03-06T04:00:08.029Z,21.38
2023-03-06T04:02:35.863Z,21.00
2023-03-06T04:05:05.428Z,21.03
2023-03-06T04:07:33.329Z,20.97
2023-03-06T04:10:01.202Z,21.15
2023-03-06T04:12:29.120Z,21.45
2023-03-06T04:14:56.928Z,21.15
2023-03-06T04:17:25.694Z,22.48
2023-03-06T04:19:53.780Z,23.66
2023-03-06T04:22:23.018Z,24.24
2023-03-06T04:24:51.086Z,24.09
2023-03-06T04:27:18.972Z,24.22
2023-03-06T04:29:46.795Z,23.36
2023-03-06T04:32:14.858Z,24.20
2023-03-06T04:34:42.788Z,23.92
2023-03-06T04:37:20.066Z,24.90
2023-03-06T04:39:49.336Z,24.48
2023-03-06T04:42:18.116Z,24.50
2023-03-06T04:44:46.553Z,24.21
2023-03-06T04:47:14.707Z,24.67
2023-03-06T04:49:42.575Z,25.25
2023-03-06T04:52:10.478Z,24.74
2023-03-06T04:54:38.855Z,24.39
2023-03-06T04:57:08.121Z,23.89
2023-03-06T04:59:38.763Z,23.87
2023-03-06T05:02:07.044Z,24.36
2023-03-06T05:04:35.101Z,24.35
2023-03-06T05:07:02.961Z,23.70
2023-03-06T05:09:30.843Z,24.50
2023-03-06T05:11:58.761Z,25.33
2023-03-06T05:14:30.442Z,25.11
2023-03-06T05:16:58.341Z,25.11
2023-03-06T05:19:26.333Z,24.65
2023-03-06T05:21:54.182Z,24.17
2023-03-06T05:24:22.115Z,24.47
2023-03-06T05:26:50.006Z,24.85
2023-03-06T05:29:17.942Z,25.06
2023-03-06T05:31:47.465Z,24.77
2023-03-06T05:34:16.552Z,25.84
2023-03-06T05:36:45.075Z,25.89
2023-03-06T05:39:13.140Z,25.37
2023-03-06T05:41:41.063Z,25.21
2023-03-06T05:44:10.026Z,25.85
2023-03-06T05:46:38.412Z,25.69
2023-03-06T05:49:07.645Z,27.26
2023-03-06T05:51:35.518Z,26.34
2023-03-06T05:54:03.570Z,26.16
2023-03-06T05:56:31.401Z,26.61
2023-03-06T05:58:59.351Z,26.58
2023-03-06T06:01:28.486Z,25.66
2023-03-06T06:03:56.361Z,25.01
2023-03-06T06:06:25.604Z,24.99
2023-03-06T06:08:53.493Z,25.33
2023-03-06T06:11:21.870Z,24.80
2023-03-06T06:13:50.246Z,24.56
2023-03-06T06:16:19.125Z,24.57
2023-03-06T06:18:47.584Z,25.54
2023-03-06T06:21:16.037Z,26.31
2023-03-06T06:23:45.314Z,27.21
2023-03-06T06:26:13.324Z,27.37
2023-03-06T06:28:41.267Z,27.07
2023-03-06T06:31:12.141Z,28.66
2023-03-06T06:33:40.834Z,29.09
2023-03-06T06:36:16.864Z,28.70
2023-03-06T06:38:46.173Z,26.33
2023-03-06T06:44:08.561Z,27.53
2023-03-06T06:49:26.032Z,27.21
2023-03-06T06:51:53.889Z,28.40
2023-03-06T06:54:23.124Z,28.78
2023-03-06T06:56:51.051Z,28.92
2023-03-06T06:59:19.026Z,29.05
2023-03-06T07:01:46.964Z,28.20
2023-03-06T07:04:15.223Z,28.10
2023-03-06T07:06:43.488Z,28.47
2023-03-06T07:09:12.065Z,28.50
2023-03-06T07:11:41.412Z,27.76
2023-03-06T07:14:10.019Z,27.83
2023-03-06T07:16:37.904Z,28.09
2023-03-06T07:19:05.726Z,27.61
2023-03-06T07:21:33.878Z,29.17
2023-03-06T07:24:02.425Z,29.63
2023-03-06T07:26:32.714Z,28.99
2023-03-06T07:29:03.780Z,27.64
2023-03-06T07:31:32.019Z,27.10
2023-03-06T07:34:00.185Z,26.95
2023-03-06T07:36:28.346Z,26.35
2023-03-06T07:38:56.249Z,26.87
2023-03-06T07:41:24.054Z,27.32
2023-03-06T07:43:51.922Z,26.92
2023-03-06T07:46:21.166Z,25.36
2023-03-06T07:48:49.087Z,25.60
2023-03-06T07:51:19.893Z,25.35
2023-03-06T07:53:48.346Z,25.54
2023-03-06T07:56:16.406Z,25.30
2023-03-06T07:58:45.821Z,24.96
2023-03-06T08:01:15.868Z,24.76
2023-03-06T08:03:45.583Z,25.04
2023-03-06T08:06:15.735Z,27.08
2023-03-06T08:08:45.715Z,26.91
2023-03-06T08:11:16.274Z,27.52
2023-03-06T08:13:44.657Z,27.58
2023-03-06T08:16:13.343Z,28.73
2023-03-06T08:18:41.263Z,25.04
2023-03-06T08:21:12.872Z,26.43
2023-03-06T08:23:41.394Z,25.15
2023-03-06T08:26:13.134Z,24.00
2023-03-06T08:28:41.112Z,23.86
2023-03-06T08:31:11.010Z,23.83
2023-03-06T08:33:39.575Z,26.15
2023-03-06T08:36:07.872Z,23.58
2023-03-06T08:38:37.125Z,23.26
2023-03-06T08:41:05.259Z,22.33
2023-03-06T08:43:34.852Z,21.02
2023-03-06T08:46:03.761Z,19.42
2023-03-06T08:48:31.672Z,18.96
2023-03-06T08:50:59.614Z,17.43
2023-03-06T08:53:41.746Z,17.99
2023-03-06T08:56:18.643Z,18.09
2023-03-06T08:58:46.941Z,16.97
2023-03-06T09:01:16.302Z,20.56
2023-03-06T09:03:44.943Z,16.12
2023-03-06T09:06:14.030Z,15.39
2023-03-06T09:08:43.203Z,16.82
2023-03-06T09:11:11.514Z,18.01
2023-03-06T09:13:41.211Z,17.07
2023-03-06T09:16:09.478Z,15.45
2023-03-06T09:18:38.298Z,15.88
2023-03-06T09:21:07.839Z,15.61
2023-03-06T09:23:35.795Z,16.26
2023-03-06T09:26:04.534Z,15.64
2023-03-06T09:28:32.538Z,15.62
2023-03-06T09:31:02.729Z,15.27
2023-03-06T09:33:31.602Z,15.31
2023-03-06T09:35:59.669Z,14.69
2023-03-06T09:38:28.986Z,14.44
2023-03-06T09:43:38.934Z,14.27
2023-03-06T09:46:24.390Z,14.82
2023-03-06T09:49:10.401Z,14.29
2023-03-06T09:51:52.826Z,14.51
2023-03-06T09:54:31.941Z,13.76
2023-03-06T09:56:59.903Z,13.80
2023-03-06T09:59:29.701Z,14.03
2023-03-06T10:02:10.418Z,13.95
2023-03-06T10:04:43.308Z,14.41
2023-03-06T10:07:19.813Z,13.59
2023-03-06T10:09:55.025Z,14.04
2023-03-06T10:12:26.453Z,13.89
2023-03-06T10:15:03.740Z,14.06
2023-03-06T10:17:37.669Z,12.98
2023-03-06T10:20:18.130Z,12.96
2023-03-06T10:23:11.190Z,12.17
2023-03-06T10:25:51.252Z,12.18
2023-03-06T10:28:26.067Z,11.77
2023-03-06T10:31:03.693Z,12.24
2023-03-06T10:33:48.016Z,12.25
2023-03-06T10:36:18.340Z,11.61
2023-03-06T10:38:48.669Z,11.25
2023-03-06T10:41:27.557Z,11.62
2023-03-06T10:44:25.056Z,11.34
2023-03-06T10:46:54.928Z,11.56
2023-03-06T10:49:31.444Z,11.57
2023-03-06T10:52:03.133Z,11.35
2023-03-06T10:54:33.609Z,11.66
2023-03-06T10:57:21.017Z,11.91
2023-03-06T10:59:53.858Z,11.89
2023-03-06T11:02:31.521Z,11.73
2023-03-06T11:05:03.458Z,12.42
2023-03-06T11:07:33.283Z,12.57
2023-03-06T11:10:08.949Z,12.27
2023-03-06T11:12:38.581Z,12.62
2023-03-06T11:15:22.483Z,12.50
2023-03-06T11:17:54.710Z,11.45
2023-03-06T11:20:30.295Z,11.27
2023-03-06T11:23:08.695Z,10.89
2023-03-06T11:25:42.596Z,10.66
2023-03-06T11:28:24.582Z,11.22
2023-03-06T11:30:57.660Z,11.34
2023-03-06T11:33:35.191Z,10.54
2023-03-06T11:36:16.127Z,10.11
2023-03-06T11:38:50.574Z,10.60
2023-03-06T11:41:32.195Z,11.13
2023-03-06T11:44:14.311Z,11.11
2023-03-06T11:46:49.318Z,10.90
2023-03-06T11:49:29.045Z,11.59
2023-03-06T11:52:07.928Z,11.95
2023-03-06T11:54:35.893Z,11.89
2023-03-06T11:57:08.336Z,12.57
2023-03-06T12:00:13.008Z,13.11
2023-03-06T12:03:12.705Z,13.94
2023-03-06T12:05:48.745Z,13.99
2023-03-06T12:08:41.063Z,14.24
2023-03-06T12:11:18.841Z,14.65
2023-03-06T12:14:15.666Z,14.71
2023-03-06T12:17:17.019Z,15.38
2023-03-06T12:20:00.921Z,15.23
2023-03-06T12:22:57.435Z,14.92
2023-03-06T12:25:37.610Z,15.35
2023-03-06T12:28:27.790Z,15.38
2023-03-06T12:31:20.198Z,15.29
2023-03-06T12:34:02.688Z,15.10
2023-03-06T12:37:01.983Z,14.73
2023-03-06T12:39:44.773Z,15.04
2023-03-06T12:42:30.845Z,14.42
2023-03-06T12:45:22.154Z,14.78
2023-03-06T12:47:56.897Z,15.45
2023-03-06T12:50:27.779Z,15.46
2023-03-06T12:52:59.388Z,15.60
2023-03-06T12:55:28.037Z,16.15
2023-03-06T12:57:57.286Z,14.64
2023-03-06T13:01:05.962Z,14.52
2023-03-06T13:03:55.378Z,15.28
2023-03-06T13:06:50.809Z,15.33
2023-03-06T13:09:23.635Z,16.38
2023-03-06T13:12:27.117Z,15.89
2023-03-06T13:14:59.216Z,16.19
2023-03-06T13:17:44.778Z,16.07
2023-03-06T13:20:38.047Z,15.52
2023-03-06T13:23:43.533Z,15.01
2023-03-06T13:26:33.098Z,14.03
2023-03-06T13:29:01.133Z,14.57
2023-03-06T13:32:17.301Z,14.50
2023-03-06T13:34:46.929Z,14.65
2023-03-06T13:37:49.358Z,14.53
2023-03-06T13:40:32.368Z,14.88
2023-03-06T13:43:19.293Z,15.17
2023-03-06T13:45:49.607Z,14.30
2023-03-06T13:48:46.228Z,14.96
2023-03-06T13:51:23.960Z,14.46
2023-03-06T13:54:21.576Z,15.12
2023-03-06T13:57:15.142Z,17.49
2023-03-06T14:00:20.257Z,14.40
2023-03-06T14:03:05.085Z,14.37
2023-03-06T14:05:43.570Z,15.42
2023-03-06T14:08:17.453Z,14.69
2023-03-06T14:10:47.542Z,14.19
2023-03-06T14:13:20.719Z,14.40
2023-03-06T14:15:51.198Z,14.42
2023-03-06T14:18:26.386Z,14.51
2023-03-06T14:21:00.559Z,15.41
2023-03-06T14:23:32.216Z,14.58
2023-03-06T14:26:15.097Z,14.53
2023-03-06T14:28:44.765Z,15.22
2023-03-06T14:31:19.153Z,15.83
2023-03-06T14:33:53.333Z,17.08
2023-03-06T14:36:33.457Z,14.30
2023-03-06T14:39:06.526Z,14.86
2023-03-06T14:41:36.616Z,15.04
2023-03-06T14:44:20.753Z,15.18
2023-03-06T14:46:51.629Z,15.50
2023-03-06T14:49:22.405Z,15.17
2023-03-06T14:51:54.001Z,17.35
2023-03-06T14:54:27.035Z,19.53
2023-03-06T14:57:01.331Z,18.32
2023-03-06T14:59:42.741Z,19.43
2023-03-06T15:02:19.945Z,16.72
2023-03-06T15:04:52.276Z,14.28
2023-03-06T15:07:30.351Z,14.59
2023-03-06T15:10:00.457Z,14.96
2023-03-06T15:12:38.704Z,14.60
2023-03-06T15:15:35.310Z,14.51
2023-03-06T15:18:03.300Z,14.28
2023-03-06T15:20:52.602Z,14.46
2023-03-06T15:23:26.243Z,15.00
2023-03-06T15:25:58.229Z,14.40
2023-03-06T15:28:34.540Z,15.11
2023-03-06T15:31:19.358Z,14.41
2023-03-06T15:34:05.571Z,14.82
2023-03-06T15:36:34.945Z,13.53
2023-03-06T15:39:31.741Z,13.22
2023-03-06T15:42:00.708Z,13.40
2023-03-06T15:44:31.959Z,14.66
2023-03-06T15:47:08.432Z,16.09
2023-03-06T15:49:39.094Z,13.95
2023-03-06T15:52:07.097Z,13.30
2023-03-06T15:54:37.306Z,16.86
2023-03-06T15:57:09.071Z,22.03
2023-03-06T15:59:44.534Z,21.80
2023-03-06T16:02:17.449Z,30.79
2023-03-06T16:04:49.204Z,32.11
2023-03-06T16:07:20.839Z,21.16
2023-03-06T16:09:53.889Z,18.95
2023-03-06T16:12:23.248Z,16.43
2023-03-06T16:14:51.189Z,21.32
2023-03-06T16:17:19.298Z,23.65
2023-03-06T16:19:47.180Z,22.03
2023-03-06T16:22:15.313Z,19.80
2023-03-06T16:24:43.469Z,18.16
2023-03-06T16:27:19.824Z,16.53
2023-03-06T16:29:47.685Z,19.44
2023-03-06T16:32:15.629Z,21.35
2023-03-06T16:34:43.548Z,16.66
2023-03-06T16:37:14.172Z,15.80
2023-03-06T16:39:42.142Z,16.09
2023-03-06T16:42:10.150Z,17.03
2023-03-06T16:44:39.454Z,19.12
2023-03-06T16:47:11.027Z,20.06
2023-03-06T16:49:39.103Z,17.70
2023-03-06T16:52:08.475Z,16.77
2023-03-06T16:54:36.336Z,15.48
2023-03-06T16:57:04.597Z,13.64
2023-03-06T16:59:32.743Z,14.23
2023-03-06T17:02:02.332Z,16.04
2023-03-06T17:04:30.207Z,16.65
2023-03-06T17:06:58.073Z,17.67
2023-03-06T17:09:25.945Z,17.71
2023-03-06T17:11:53.836Z,18.14
2023-03-06T17:14:21.840Z,19.16
2023-03-06T17:16:49.753Z,20.79
2023-03-06T17:19:19.021Z,21.43
2023-03-06T17:21:46.860Z,18.30
2023-03-06T17:24:14.732Z,16.56
2023-03-06T17:26:43.460Z,16.59
2023-03-06T17:29:12.133Z,19.25
2023-03-06T17:31:40.029Z,20.15
2023-03-06T17:34:07.994Z,21.70
2023-03-06T17:36:37.281Z,23.91
2023-03-06T17:39:05.916Z,21.44
2023-03-06T17:41:34.224Z,19.66
2023-03-06T17:44:02.783Z,19.65
2023-03-06T17:46:31.799Z,18.83
2023-03-06T17:48:59.742Z,18.77
2023-03-06T17:51:27.691Z,20.52
2023-03-06T17:53:57.475Z,21.34
2023-03-06T17:56:25.452Z,21.64
2023-03-06T17:58:53.460Z,20.28
2023-03-06T18:01:23.966Z,20.13
2023-03-06T18:03:52.738Z,19.78
2023-03-06T18:06:22.263Z,19.94
2023-03-06T18:08:52.885Z,20.60
2023-03-06T18:11:23.437Z,20.66
2023-03-06T18:13:52.009Z,19.04
2023-03-06T18:16:22.998Z,25.27
2023-03-06T18:18:53.391Z,21.98
2023-03-06T18:21:21.602Z,22.56
2023-03-06T18:23:49.475Z,23.00
2023-03-06T18:26:20.221Z,21.68
2023-03-06T18:28:53.869Z,22.01
2023-03-06T18:31:25.087Z,21.42
2023-03-06T18:33:54.961Z,22.07
2023-03-06T18:36:24.991Z,23.09
2023-03-06T18:38:53.344Z,25.40
2023-03-06T18:41:22.844Z,22.91
2023-03-06T18:43:55.114Z,23.60
2023-03-06T18:46:23.651Z,22.71
2023-03-06T18:48:51.567Z,21.72
2023-03-06T18:51:20.179Z,22.15
2023-03-06T18:53:48.265Z,21.42
2023-03-06T18:56:18.545Z,21.55
2023-03-06T18:58:46.542Z,20.44
2023-03-06T19:01:16.154Z,17.82
2023-03-06T19:03:44.444Z,16.96
2023-03-06T19:06:14.621Z,18.61
2023-03-06T19:08:42.918Z,19.11
2023-03-06T19:11:13.271Z,18.78
2023-03-06T19:13:42.139Z,19.62
2023-03-06T19:16:16.908Z,18.53
2023-03-06T19:18:46.296Z,18.55
2023-03-06T19:21:16.702Z,18.60
2023-03-06T19:23:45.618Z,17.93
2023-03-06T19:26:14.709Z,18.32
2023-03-06T19:28:43.890Z,19.81
2023-03-06T19:31:14.769Z,19.98
2023-03-06T19:33:44.150Z,20.39
2023-03-06T19:36:15.342Z,19.91
2023-03-06T19:38:44.032Z,20.43
2023-03-06T19:41:13.823Z,20.03
2023-03-06T19:43:42.542Z,19.75
2023-03-06T19:46:12.914Z,18.73
2023-03-06T19:48:41.115Z,19.08
2023-03-06T19:51:09.995Z,20.16
2023-03-06T19:53:40.554Z,20.77
2023-03-06T19:56:10.614Z,21.15
2023-03-06T19:58:40.569Z,19.62
2023-03-06T20:01:11.017Z,19.64
2023-03-06T20:03:40.087Z,20.73
2023-03-06T20:06:13.857Z,21.90
2023-03-06T20:08:43.917Z,23.85
2023-03-06T20:11:18.801Z,24.87
2023-03-06T20:13:48.962Z,25.39
2023-03-06T20:16:17.713Z,27.45
2023-03-06T20:18:46.616Z,25.52
2023-03-06T20:21:15.818Z,23.77
2023-03-06T20:23:45.199Z,21.43
2023-03-06T20:26:14.936Z,21.61
2023-03-06T20:28:43.851Z,21.05
2023-03-06T20:31:16.520Z,21.61
2023-03-06T20:33:45.552Z,20.41
2023-03-06T20:36:15.609Z,19.73
2023-03-06T20:38:45.165Z,19.72
2023-03-06T20:41:15.679Z,19.16
2023-03-06T20:43:44.211Z,19.64
2023-03-06T20:46:14.072Z,20.71
2023-03-06T20:48:42.915Z,21.64
2023-03-06T20:51:17.618Z,21.70
2023-03-06T20:53:47.602Z,21.68
2023-03-06T20:56:17.293Z,21.82
2023-03-06T20:58:45.878Z,20.73
2023-03-06T21:01:20.020Z,20.44
2023-03-06T21:03:48.480Z,21.61
2023-03-06T21:06:16.796Z,21.17
2023-03-06T21:08:46.850Z,20.66
2023-03-06T21:11:15.349Z,20.85
2023-03-06T21:13:44.037Z,20.57
2023-03-06T21:16:14.809Z,20.72
2023-03-06T21:18:43.311Z,20.53
2023-03-06T21:21:14.267Z,20.55
2023-03-06T21:23:42.256Z,20.38
2023-03-06T21:26:13.585Z,20.82
2023-03-06T21:28:41.552Z,20.66
2023-03-06T21:31:11.669Z,20.93
2023-03-06T21:33:39.926Z,21.39
2023-03-06T21:36:08.981Z,20.80
2023-03-06T21:38:37.288Z,19.78
2023-03-06T21:41:10.441Z,19.46
2023-03-06T21:43:39.984Z,19.37
2023-03-06T21:46:08.042Z,19.23
2023-03-06T21:48:36.565Z,19.05
2023-03-06T21:51:06.714Z,19.21
2023-03-06T21:53:34.676Z,18.31
2023-03-06T21:56:03.310Z,18.23
2023-03-06T21:58:32.251Z,18.20
2023-03-06T22:01:01.592Z,18.16
2023-03-06T22:03:30.289Z,18.43
2023-03-06T22:06:07.450Z,17.42
2023-03-06T22:08:35.345Z,17.87
2023-03-06T22:11:06.898Z,18.14
2023-03-06T22:13:34.851Z,17.57
2023-03-06T22:16:05.307Z,18.50
2023-03-06T22:18:33.676Z,17.78
2023-03-06T22:21:03.443Z,17.71
2023-03-06T22:23:31.547Z,17.97
2023-03-06T22:26:02.647Z,18.76
2023-03-06T22:28:32.523Z,18.88
2023-03-06T22:31:06.505Z,19.88
2023-03-06T22:33:34.609Z,21.33
2023-03-06T22:36:06.202Z,21.29
2023-03-06T22:38:34.883Z,22.15
2023-03-06T22:41:02.897Z,21.32
2023-03-06T22:43:31.106Z,20.42
2023-03-06T22:46:03.107Z,19.71
2023-03-06T22:48:32.968Z,19.74
2023-03-06T22:51:05.686Z,19.13
2023-03-06T22:53:34.296Z,19.69
2023-03-06T22:56:03.934Z,19.04
2023-03-06T22:58:36.981Z,19.05
2023-03-06T23:01:07.136Z,19.30
2023-03-06T23:03:37.156Z,20.13
2023-03-06T23:06:08.449Z,19.26
2023-03-06T23:08:36.427Z,19.17
2023-03-06T23:11:09.170Z,19.73
2023-03-06T23:13:37.090Z,19.94
2023-03-06T23:16:05.454Z,19.25
2023-03-06T23:18:34.017Z,19.14
2023-03-06T23:21:07.214Z,19.22
2023-03-06T23:23:35.233Z,19.05
2023-03-06T23:26:03.703Z,18.93
2023-03-06T23:28:31.706Z,19.83
2023-03-06T23:30:59.587Z,19.02
2023-03-06T23:33:27.590Z,18.83
2023-03-06T23:35:55.529Z,18.17
2023-03-06T23:38:24.823Z,17.83
2023-03-06T23:40:52.686Z,17.36
2023-03-06T23:43:22.682Z,17.73
2023-03-06T23:45:53.925Z,17.55
2023-03-06T23:48:22.407Z,17.85
2023-03-06T23:50:50.546Z,17.93
2023-03-06T23:53:18.740Z,17.04
2023-03-06T23:55:49.791Z,16.43
2023-03-06T23:58:19.364Z,17.07
